createdAt,value
2022-11-06T00:02:09.199Z,96896.09
2022-11-06T00:04:37.634Z,96898.59
2022-11-06T00:07:05.815Z,96901.50
2022-11-06T00:09:35.438Z,96900.28
2022-11-06T00:12:05.080Z,96896.97
2022-11-06T00:14:36.389Z,96902.34
2022-11-06T00:17:05.331Z,96889.28
2022-11-06T00:19:33.739Z,96893.00
2022-11-06T00:22:03.096Z,96898.00
2022-11-06T00:24:31.990Z,96891.34
2022-11-06T00:27:00.412Z,96894.88
2022-11-06T00:29:29.743Z,96890.97
2022-11-06T00:31:59.848Z,96887.84
2022-11-06T00:34:28.275Z,96897.16
2022-11-06T00:36:57.402Z,96898.59
2022-11-06T00:39:26.094Z,96894.03
2022-11-06T00:41:55.365Z,96899.03
2022-11-06T00:44:23.832Z,96899.84
2022-11-06T00:46:53.035Z,96891.16
2022-11-06T00:49:22.894Z,96889.47
2022-11-06T00:51:52.401Z,96892.97
2022-11-06T00:54:21.505Z,96884.47
2022-11-06T00:56:49.920Z,96873.09
2022-11-06T00:59:19.436Z,96882.19
2022-11-06T01:01:48.410Z,96879.72
2022-11-06T01:04:19.147Z,96877.41
2022-11-06T01:06:51.430Z,96873.06
2022-11-06T01:09:24.852Z,96877.25
2022-11-06T01:14:45.299Z,96885.50
2022-11-06T01:17:14.312Z,96883.22
2022-11-06T01:19:43.442Z,96867.47
2022-11-06T01:22:13.185Z,96896.25
2022-11-06T01:24:43.109Z,96891.09
2022-11-06T01:27:26.041Z,96888.41
2022-11-06T01:29:56.193Z,96881.78
2022-11-06T01:32:25.394Z,96881.97
2022-11-06T01:34:54.329Z,96877.38
2022-11-06T01:37:24.092Z,96874.06
2022-11-06T01:39:52.948Z,96868.69
2022-11-06T01:42:22.484Z,96877.78
2022-11-06T01:45:18.171Z,96868.47
2022-11-06T01:47:46.947Z,96865.75
2022-11-06T01:50:18.129Z,96866.94
2022-11-06T01:52:51.333Z,96859.06
2022-11-06T01:55:25.206Z,96862.38
2022-11-06T01:57:56.450Z,96863.38
2022-11-06T02:00:26.466Z,96849.91
2022-11-06T02:02:56.168Z,96841.03
2022-11-06T02:05:24.992Z,96855.63
2022-11-06T02:07:57.628Z,96825.75
2022-11-06T02:10:26.120Z,96852.31
2022-11-06T02:13:11.880Z,96849.44
2022-11-06T02:15:47.494Z,96832.00
2022-11-06T02:18:26.778Z,96832.78
2022-11-06T02:21:18.431Z,96861.53
2022-11-06T02:24:03.669Z,96860.06
2022-11-06T02:27:02.460Z,96859.69
2022-11-06T02:29:35.742Z,96856.28
2022-11-06T02:32:11.544Z,96859.41
2022-11-06T02:34:43.054Z,96855.72
2022-11-06T02:37:17.753Z,96856.59
2022-11-06T02:39:49.602Z,96850.41
2022-11-06T02:42:21.400Z,96854.34
2022-11-06T02:44:56.781Z,96839.19
2022-11-06T02:47:30.319Z,96847.91
2022-11-06T02:50:03.980Z,96844.53
2022-11-06T02:52:38.292Z,96836.66
2022-11-06T02:55:11.345Z,96829.63
2022-11-06T02:57:43.997Z,96833.81
2022-11-06T03:00:17.387Z,96837.94
2022-11-06T03:02:51.477Z,96841.63
2022-11-06T03:05:25.225Z,96842.25
2022-11-06T03:08:00.752Z,96848.88
2022-11-06T03:10:34.607Z,96853.47
2022-11-06T03:13:12.856Z,96839.34
2022-11-06T03:15:49.777Z,96842.84
2022-11-06T03:18:27.477Z,96842.41
2022-11-06T03:21:00.723Z,96850.09
2022-11-06T03:23:36.008Z,96844.28
2022-11-06T03:26:13.605Z,96846.19
2022-11-06T03:28:50.838Z,96827.97
2022-11-06T03:31:28.919Z,96842.91
2022-11-06T03:34:03.100Z,96846.88
2022-11-06T03:36:35.278Z,96855.16
2022-11-06T03:39:10.274Z,96819.69
2022-11-06T03:41:43.359Z,96849.75
2022-11-06T03:44:18.898Z,96846.66
2022-11-06T03:46:54.397Z,96848.75
2022-11-06T03:49:28.005Z,96849.16
2022-11-06T03:52:02.665Z,96844.44
2022-11-06T03:54:36.678Z,96847.31
2022-11-06T03:57:09.394Z,96840.94
2022-11-06T03:59:44.113Z,96837.44
2022-11-06T04:02:17.189Z,96832.47
2022-11-06T04:04:52.588Z,96839.28
2022-11-06T04:07:24.502Z,96836.00
2022-11-06T04:10:15.699Z,96848.22
2022-11-06T04:13:03.297Z,96848.63
2022-11-06T04:15:34.381Z,96845.75
2022-11-06T04:18:05.350Z,96843.25
2022-11-06T04:20:59.315Z,96838.09
2022-11-06T04:23:37.758Z,96840.19
2022-11-06T04:26:29.203Z,96849.28
2022-11-06T04:29:04.139Z,96836.25
2022-11-06T04:31:41.926Z,96841.41
2022-11-06T04:34:18.726Z,96834.38
2022-11-06T04:36:52.375Z,96824.44
2022-11-06T04:39:28.613Z,96821.13
2022-11-06T04:42:06.712Z,96819.66
2022-11-06T04:44:40.166Z,96819.06
2022-11-06T04:47:11.238Z,96813.28
2022-11-06T04:49:44.515Z,96812.03
2022-11-06T04:52:17.998Z,96803.94
2022-11-06T04:54:48.048Z,96791.72
2022-11-06T04:57:16.676Z,96798.16
2022-11-06T04:59:46.301Z,96793.78
2022-11-06T05:02:14.823Z,96796.69
2022-11-06T05:04:46.126Z,96795.44
2022-11-06T05:07:15.140Z,96800.22
2022-11-06T05:09:45.133Z,96794.22
2022-11-06T05:12:14.379Z,96795.88
2022-11-06T05:14:42.803Z,96792.97
2022-11-06T05:17:12.052Z,96799.81
2022-11-06T05:19:40.465Z,96789.25
2022-11-06T05:22:29.228Z,96786.38
2022-11-06T05:24:58.072Z,96785.72
2022-11-06T05:27:26.588Z,96785.31
2022-11-06T05:29:56.267Z,96785.94
2022-11-06T05:32:24.785Z,96779.72
2022-11-06T05:34:53.822Z,96776.59
2022-11-06T05:37:23.584Z,96775.16
2022-11-06T05:39:52.479Z,96782.63
2022-11-06T05:42:21.524Z,96780.75
2022-11-06T05:44:50.676Z,96783.25
2022-11-06T05:47:19.336Z,96785.09
2022-11-06T05:49:47.770Z,96788.41
2022-11-06T05:52:16.457Z,96779.72
2022-11-06T05:54:46.185Z,96776.81
2022-11-06T05:57:15.227Z,96785.94
2022-11-06T05:59:44.038Z,96779.31
2022-11-06T06:02:12.598Z,96782.19
2022-11-06T06:04:41.709Z,96774.94
2022-11-06T06:07:10.115Z,96776.81
2022-11-06T06:09:39.223Z,96767.69
2022-11-06T06:12:11.964Z,96773.91
2022-11-06T06:14:40.914Z,96780.56
2022-11-06T06:17:09.278Z,96777.84
2022-11-06T06:19:38.694Z,96779.31
2022-11-06T06:22:07.090Z,96776.63
2022-11-06T06:24:36.805Z,96777.44
2022-11-06T06:27:06.307Z,96773.94
2022-11-06T06:29:36.317Z,96761.50
2022-11-06T06:32:05.389Z,96763.56
2022-11-06T06:34:33.868Z,96764.38
2022-11-06T06:37:03.294Z,96738.91
2022-11-06T06:39:32.118Z,96746.97
2022-11-06T06:42:00.742Z,96742.44
2022-11-06T06:44:29.254Z,96740.16
2022-11-06T06:46:59.042Z,96744.91
2022-11-06T06:49:27.954Z,96737.91
2022-11-06T06:51:56.408Z,96736.63
2022-11-06T06:54:25.253Z,96737.06
2022-11-06T06:56:53.893Z,96743.72
2022-11-06T06:59:22.293Z,96743.28
2022-11-06T07:01:50.872Z,96751.16
2022-11-06T07:04:21.025Z,96745.78
2022-11-06T07:06:49.542Z,96748.47
2022-11-06T07:09:18.120Z,96743.69
2022-11-06T07:11:46.889Z,96752.19
2022-11-06T07:14:15.838Z,96745.34
2022-11-06T07:16:45.648Z,96753.22
2022-11-06T07:19:15.797Z,96752.81
2022-11-06T07:21:46.562Z,96759.44
2022-11-06T07:24:14.977Z,96756.09
2022-11-06T07:26:44.305Z,96761.31
2022-11-06T07:29:13.394Z,96760.25
2022-11-06T07:31:41.768Z,96754.44
2022-11-06T07:34:11.502Z,96755.72
2022-11-06T07:36:39.915Z,96762.97
2022-11-06T07:39:10.181Z,96765.00
2022-11-06T07:41:39.080Z,96774.94
2022-11-06T07:44:07.630Z,96765.44
2022-11-06T07:46:36.130Z,96774.72
2022-11-06T07:49:04.617Z,96765.59
2022-11-06T07:51:33.645Z,96763.31
2022-11-06T07:54:02.621Z,96765.78
2022-11-06T07:56:32.654Z,96770.31
2022-11-06T07:59:01.969Z,96769.88
2022-11-06T08:01:30.576Z,96776.28
2022-11-06T08:03:59.558Z,96775.63
2022-11-06T08:06:28.046Z,96780.84
2022-11-06T08:08:59.079Z,96778.53
2022-11-06T08:11:27.863Z,96769.00
2022-11-06T08:14:01.026Z,96766.09
2022-11-06T08:16:29.595Z,96766.69
2022-11-06T08:18:58.798Z,96762.78
2022-11-06T08:21:27.252Z,96759.69
2022-11-06T08:23:56.128Z,96759.72
2022-11-06T08:26:24.536Z,96751.22
2022-11-06T08:28:53.030Z,96750.59
2022-11-06T08:31:23.234Z,96744.22
2022-11-06T08:33:51.880Z,96740.94
2022-11-06T08:36:21.765Z,96736.78
2022-11-06T08:38:50.517Z,96721.47
2022-11-06T08:41:19.712Z,96727.06
2022-11-06T08:43:52.655Z,96698.94
2022-11-06T08:46:22.890Z,96726.66
2022-11-06T08:48:51.280Z,96732.19
2022-11-06T08:51:19.958Z,96716.84
2022-11-06T08:53:48.879Z,96709.16
2022-11-06T08:56:17.753Z,96707.06
2022-11-06T08:58:49.091Z,96706.22
2022-11-06T09:01:20.430Z,96697.13
2022-11-06T09:03:50.411Z,96693.81
2022-11-06T09:06:19.432Z,96689.28
2022-11-06T09:08:47.876Z,96694.66
2022-11-06T09:11:16.315Z,96684.53
2022-11-06T09:13:45.128Z,96688.69
2022-11-06T09:16:16.071Z,96685.56
2022-11-06T09:18:45.705Z,96688.88
2022-11-06T09:21:15.485Z,96690.09
2022-11-06T09:23:46.102Z,96703.78
2022-11-06T09:26:14.982Z,96707.09
2022-11-06T09:28:44.191Z,96712.94
2022-11-06T09:31:12.687Z,96677.53
2022-11-06T09:33:41.305Z,96695.13
2022-11-06T09:36:10.593Z,96691.38
2022-11-06T09:38:41.070Z,96689.03
2022-11-06T09:41:19.643Z,96684.47
2022-11-06T09:44:05.951Z,96677.00
2022-11-06T09:46:39.340Z,96674.03
2022-11-06T09:49:13.944Z,96677.53
2022-11-06T09:51:49.773Z,96668.78
2022-11-06T09:54:24.946Z,96657.47
2022-11-06T09:56:59.097Z,96644.22
2022-11-06T09:59:28.518Z,96638.56
2022-11-06T10:02:01.516Z,96634.94
2022-11-06T10:04:39.753Z,96605.50
2022-11-06T10:07:24.561Z,96617.88
2022-11-06T10:09:54.803Z,96607.84
2022-11-06T10:12:35.424Z,96601.53
2022-11-06T10:15:17.623Z,96596.13
2022-11-06T10:17:55.258Z,96596.31
2022-11-06T10:20:32.377Z,96585.28
2022-11-06T10:23:06.620Z,96585.63
2022-11-06T10:25:51.282Z,96584.47
2022-11-06T10:28:39.968Z,96575.53
2022-11-06T10:31:16.309Z,96567.66
2022-11-06T10:33:56.528Z,96576.22
2022-11-06T10:36:30.678Z,96577.22
2022-11-06T10:39:00.909Z,96573.69
2022-11-06T10:41:35.530Z,96560.56
2022-11-06T10:44:07.649Z,96562.00
2022-11-06T10:46:39.386Z,96563.25
2022-11-06T10:49:17.096Z,96560.50
2022-11-06T10:52:05.932Z,96569.28
2022-11-06T10:54:46.904Z,96553.56
2022-11-06T10:57:28.778Z,96547.97
2022-11-06T10:59:57.863Z,96537.53
2022-11-06T11:02:31.688Z,96535.56
2022-11-06T11:05:00.233Z,96525.50
2022-11-06T11:07:32.419Z,96520.34
2022-11-06T11:10:02.505Z,96517.56
2022-11-06T11:12:33.482Z,96507.56
2022-11-06T11:15:17.385Z,96502.88
2022-11-06T11:18:15.976Z,96496.81
2022-11-06T11:20:46.745Z,96486.59
2022-11-06T11:23:18.665Z,96481.19
2022-11-06T11:25:49.515Z,96476.50
2022-11-06T11:28:30.561Z,96464.75
2022-11-06T11:31:07.643Z,96459.03
2022-11-06T11:33:38.592Z,96450.94
2022-11-06T11:36:10.636Z,96454.13
2022-11-06T11:38:41.331Z,96447.88
2022-11-06T11:41:14.131Z,96440.09
2022-11-06T11:43:43.818Z,96433.38
2022-11-06T11:46:21.594Z,96432.97
2022-11-06T11:48:53.565Z,96434.59
2022-11-06T11:51:29.197Z,96424.16
2022-11-06T11:54:02.424Z,96415.59
2022-11-06T11:57:02.496Z,96406.41
2022-11-06T11:59:24.338Z,96398.59
2022-11-06T12:01:55.336Z,96388.22
2022-11-06T12:04:29.674Z,96381.50
2022-11-06T12:07:04.208Z,96385.41
2022-11-06T12:09:41.425Z,96381.00
2022-11-06T12:12:22.651Z,96372.91
2022-11-06T12:15:08.083Z,96368.13
2022-11-06T12:17:41.015Z,96365.56
2022-11-06T12:20:19.142Z,96365.84
2022-11-06T12:22:51.340Z,96363.19
2022-11-06T12:25:26.945Z,96350.94
2022-11-06T12:27:58.861Z,96354.06
2022-11-06T12:30:27.566Z,96344.38
2022-11-06T12:33:04.266Z,96349.88
2022-11-06T12:35:39.185Z,96348.25
2022-11-06T12:38:16.709Z,96352.50
2022-11-06T12:40:50.460Z,96337.84
2022-11-06T12:43:26.909Z,96350.47
2022-11-06T12:46:16.034Z,96353.94
2022-11-06T12:48:58.859Z,96347.88
2022-11-06T12:51:39.292Z,96346.66
2022-11-06T12:54:22.789Z,96347.72
2022-11-06T12:56:58.285Z,96343.94
2022-11-06T12:59:41.683Z,96343.91
2022-11-06T13:02:25.647Z,96337.41
2022-11-06T13:05:01.297Z,96340.44
2022-11-06T13:07:48.202Z,96344.91
2022-11-06T13:10:30.711Z,96350.63
2022-11-06T13:13:15.124Z,96353.81
2022-11-06T13:15:50.954Z,96346.88
2022-11-06T13:18:25.815Z,96347.75
2022-11-06T13:21:02.606Z,96348.50
2022-11-06T13:23:38.899Z,96351.13
2022-11-06T13:26:13.556Z,96344.09
2022-11-06T13:28:46.091Z,96328.75
2022-11-06T13:31:20.810Z,96327.13
2022-11-06T13:33:53.305Z,96332.06
2022-11-06T13:36:22.872Z,96327.69
2022-11-06T13:38:57.380Z,96324.78
2022-11-06T13:41:29.560Z,96323.06
2022-11-06T13:44:02.623Z,96314.06
2022-11-06T13:46:38.495Z,96310.44
2022-11-06T13:49:19.317Z,96310.00
2022-11-06T13:51:53.879Z,96308.75
2022-11-06T13:54:46.612Z,96303.25
2022-11-06T13:57:38.048Z,96299.66
2022-11-06T14:00:17.658Z,96291.94
2022-11-06T14:03:19.365Z,96272.72
2022-11-06T14:05:52.825Z,96271.47
2022-11-06T14:08:27.281Z,96272.56
2022-11-06T14:11:02.180Z,96260.88
2022-11-06T14:13:33.525Z,96269.66
2022-11-06T14:16:34.125Z,96261.63
2022-11-06T14:19:11.606Z,96260.38
2022-11-06T14:21:51.160Z,96247.56
2022-11-06T14:24:32.749Z,96246.44
2022-11-06T14:27:07.016Z,96238.91
2022-11-06T14:30:00.399Z,96233.69
2022-11-06T14:32:41.516Z,96227.38
2022-11-06T14:35:49.650Z,96218.34
2022-11-06T14:38:42.730Z,96201.09
2022-11-06T14:41:48.567Z,96194.31
2022-11-06T14:44:54.526Z,96182.88
2022-11-06T14:47:28.302Z,96172.38
2022-11-06T14:50:00.875Z,96173.56
2022-11-06T14:52:30.013Z,96168.94
2022-11-06T14:55:05.516Z,96169.09
2022-11-06T14:57:44.930Z,96178.91
2022-11-06T15:00:36.621Z,96183.47
2022-11-06T15:03:17.016Z,96179.94
2022-11-06T15:05:51.929Z,96189.09
2022-11-06T15:08:57.231Z,96191.25
2022-11-06T15:11:55.438Z,96198.47
2022-11-06T15:15:04.794Z,96186.88
2022-11-06T15:17:36.689Z,96184.69
2022-11-06T15:20:21.996Z,96186.63
2022-11-06T15:23:01.202Z,96188.31
2022-11-06T15:25:30.730Z,96178.88
2022-11-06T15:28:05.385Z,96192.59
2022-11-06T15:30:42.504Z,96185.44
2022-11-06T15:33:19.026Z,96179.63
2022-11-06T15:35:50.047Z,96192.50
2022-11-06T15:38:22.668Z,96187.66
2022-11-06T15:40:54.504Z,96188.88
2022-11-06T15:43:31.204Z,96185.81
2022-11-06T15:46:08.645Z,96181.63
2022-11-06T15:48:38.863Z,96183.84
2022-11-06T15:51:22.493Z,96187.03
2022-11-06T15:53:51.007Z,96190.13
2022-11-06T15:56:23.371Z,96183.00
2022-11-06T15:59:15.943Z,96181.47
2022-11-06T16:01:49.616Z,96179.03
2022-11-06T16:04:23.317Z,96174.28
2022-11-06T16:06:54.033Z,96180.06
2022-11-06T16:09:26.723Z,96188.63
2022-11-06T16:11:55.617Z,96180.66
2022-11-06T16:14:24.899Z,96184.09
2022-11-06T16:16:55.729Z,96188.91
2022-11-06T16:19:32.962Z,96187.25
2022-11-06T16:22:06.517Z,96180.22
2022-11-06T16:24:43.468Z,96180.09
2022-11-06T16:27:12.808Z,96175.50
2022-11-06T16:29:48.070Z,96176.25
2022-11-06T16:32:19.572Z,96177.19
2022-11-06T16:34:52.134Z,96169.34
2022-11-06T16:37:40.551Z,96140.13
2022-11-06T16:40:46.547Z,96178.19
2022-11-06T16:43:17.475Z,96179.00
2022-11-06T16:45:57.851Z,96168.06
2022-11-06T16:48:40.657Z,96180.97
2022-11-06T16:51:12.993Z,96185.09
2022-11-06T16:53:53.711Z,96189.31
2022-11-06T16:56:29.488Z,96195.66
2022-11-06T16:59:03.061Z,96190.03
2022-11-06T17:01:41.249Z,96191.44
2022-11-06T17:04:20.597Z,96201.88
2022-11-06T17:06:51.849Z,96208.94
2022-11-06T17:09:30.264Z,96203.19
2022-11-06T17:12:01.135Z,96203.78
2022-11-06T17:14:30.477Z,96208.13
2022-11-06T17:17:01.765Z,96204.50
2022-11-06T17:19:31.362Z,96195.91
2022-11-06T17:22:02.027Z,96194.03
2022-11-06T17:24:36.486Z,96200.25
2022-11-06T17:27:07.771Z,96200.81
2022-11-06T17:29:37.399Z,96200.50
2022-11-06T17:32:06.198Z,96196.38
2022-11-06T17:34:35.140Z,96204.00
2022-11-06T17:37:05.022Z,96217.31
2022-11-06T17:39:34.748Z,96206.25
2022-11-06T17:42:03.160Z,96191.94
2022-11-06T17:44:32.117Z,96201.09
2022-11-06T17:47:01.079Z,96202.97
2022-11-06T17:49:29.521Z,96198.06
2022-11-06T17:52:01.654Z,96205.19
2022-11-06T17:54:33.920Z,96198.16
2022-11-06T17:57:06.981Z,96192.88
2022-11-06T17:59:36.144Z,96202.47
2022-11-06T18:02:04.873Z,96200.16
2022-11-06T18:04:34.735Z,96192.50
2022-11-06T18:07:04.690Z,96195.66
2022-11-06T18:09:34.791Z,96193.78
2022-11-06T18:12:08.414Z,96200.50
2022-11-06T18:14:36.881Z,96204.25
2022-11-06T18:17:05.378Z,96202.03
2022-11-06T18:19:33.970Z,96202.03
2022-11-06T18:22:06.643Z,96203.31
2022-11-06T18:24:39.879Z,96196.47
2022-11-06T18:27:08.953Z,96195.31
2022-11-06T18:29:37.350Z,96200.22
2022-11-06T18:32:06.985Z,96192.72
2022-11-06T18:34:35.889Z,96200.81
2022-11-06T18:37:04.726Z,96198.84
2022-11-06T18:39:33.587Z,96205.41
2022-11-06T18:42:03.328Z,96193.28
2022-11-06T18:44:33.562Z,96199.03
2022-11-06T18:47:03.334Z,96215.00
2022-11-06T18:49:32.299Z,96219.72
2022-11-06T18:52:01.217Z,96224.28
2022-11-06T18:54:30.976Z,96224.28
2022-11-06T18:56:59.568Z,96229.06
2022-11-06T18:59:29.809Z,96231.56
2022-11-06T19:01:58.567Z,96233.66
2022-11-06T19:04:28.393Z,96234.94
2022-11-06T19:06:56.985Z,96230.38
2022-11-06T19:09:26.082Z,96232.72
2022-11-06T19:11:54.653Z,96230.59
2022-11-06T19:14:23.923Z,96239.88
2022-11-06T19:16:53.771Z,96237.53
2022-11-06T19:19:25.600Z,96217.22
2022-11-06T19:21:54.789Z,96231.75
2022-11-06T19:24:23.828Z,96225.66
2022-11-06T19:26:52.748Z,96233.41
2022-11-06T19:29:21.172Z,96237.50
2022-11-06T19:31:50.561Z,96230.47
2022-11-06T19:34:25.272Z,96228.34
2022-11-06T19:36:54.697Z,96228.56
2022-11-06T19:39:23.835Z,96224.34
2022-11-06T19:41:52.273Z,96224.34
2022-11-06T19:44:21.746Z,96228.69
2022-11-06T19:46:50.179Z,96220.81
2022-11-06T19:49:20.417Z,96234.06
2022-11-06T19:51:49.474Z,96235.38
2022-11-06T19:54:17.895Z,96241.59
2022-11-06T19:57:28.421Z,96237.81
2022-11-06T19:59:37.975Z,96237.38
2022-11-06T20:02:06.474Z,96243.47
2022-11-06T20:04:36.761Z,96245.56
2022-11-06T20:07:05.271Z,96252.59
2022-11-06T20:09:34.666Z,96251.31
2022-11-06T20:12:04.044Z,96269.03
2022-11-06T20:14:32.769Z,96264.66
2022-11-06T20:17:01.882Z,96257.63
2022-11-06T20:19:30.275Z,96255.06
2022-11-06T20:22:02.402Z,96259.16
2022-11-06T20:24:30.925Z,96234.34
2022-11-06T20:26:59.747Z,96258.44
2022-11-06T20:29:28.213Z,96260.22
2022-11-06T20:31:56.596Z,96270.19
2022-11-06T20:34:25.064Z,96275.75
2022-11-06T20:36:54.086Z,96275.75
2022-11-06T20:39:23.953Z,96284.88
2022-11-06T20:41:52.839Z,96293.34
2022-11-06T20:44:22.394Z,96289.81
2022-11-06T20:46:50.810Z,96279.13
2022-11-06T20:49:20.249Z,96301.44
2022-11-06T20:52:12.565Z,96302.13
2022-11-06T20:54:43.854Z,96299.88
2022-11-06T20:57:16.199Z,96308.13
2022-11-06T20:59:45.539Z,96303.88
2022-11-06T21:02:14.540Z,96299.69
2022-11-06T21:04:43.696Z,96313.44
2022-11-06T21:07:12.112Z,96303.44
2022-11-06T21:09:42.457Z,96310.03
2022-11-06T21:12:11.441Z,96315.31
2022-11-06T21:14:40.321Z,96309.81
2022-11-06T21:17:08.918Z,96310.41
2022-11-06T21:19:38.735Z,96299.56
2022-11-06T21:22:07.130Z,96306.81
2022-11-06T21:24:35.925Z,96307.78
2022-11-06T21:27:05.791Z,96293.56
2022-11-06T21:29:34.740Z,96298.72
2022-11-06T21:32:03.712Z,96315.06
2022-11-06T21:34:32.567Z,96308.38
2022-11-06T21:37:03.035Z,96311.06
2022-11-06T21:39:35.776Z,96292.66
2022-11-06T21:42:06.907Z,96318.81
2022-11-06T21:44:35.369Z,96304.84
2022-11-06T21:47:04.790Z,96305.09
2022-11-06T21:49:33.176Z,96313.66
2022-11-06T21:52:28.079Z,96318.81
2022-11-06T21:55:15.373Z,96327.25
2022-11-06T21:57:45.657Z,96323.84
2022-11-06T22:00:15.865Z,96331.84
2022-11-06T22:02:44.756Z,96334.53
2022-11-06T22:05:13.826Z,96336.66
2022-11-06T22:07:42.322Z,96335.25
2022-11-06T22:10:11.850Z,96332.53
2022-11-06T22:12:40.646Z,96341.81
2022-11-06T22:15:11.102Z,96352.16
2022-11-06T22:17:40.419Z,96324.38
2022-11-06T22:20:09.823Z,96365.66
2022-11-06T22:22:39.247Z,96367.66
2022-11-06T22:25:08.183Z,96356.63
2022-11-06T22:27:40.911Z,96368.88
2022-11-06T22:30:12.932Z,96369.09
2022-11-06T22:32:41.817Z,96350.72
2022-11-06T22:35:11.179Z,96371.69
2022-11-06T22:37:39.566Z,96372.06
2022-11-06T22:40:10.547Z,96369.13
2022-11-06T22:42:39.028Z,96383.44
2022-11-06T22:45:09.281Z,96379.09
2022-11-06T22:47:39.246Z,96382.38
2022-11-06T22:50:09.320Z,96394.63
2022-11-06T22:52:38.208Z,96384.28
2022-11-06T22:55:07.448Z,96388.84
2022-11-06T22:57:36.752Z,96392.13
2022-11-06T23:00:06.875Z,96393.19
2022-11-06T23:02:35.512Z,96396.94
2022-11-06T23:05:06.133Z,96391.19
2022-11-06T23:07:35.154Z,96392.00
2022-11-06T23:10:03.591Z,96395.78
2022-11-06T23:12:32.785Z,96393.50
2022-11-06T23:15:02.500Z,96394.13
2022-11-06T23:17:31.127Z,96383.53
2022-11-06T23:20:17.933Z,96395.78
2022-11-06T23:22:49.978Z,96397.50
2022-11-06T23:25:19.588Z,96401.69
2022-11-06T23:27:50.105Z,96397.00
2022-11-06T23:30:18.615Z,96395.94
2022-11-06T23:32:48.267Z,96388.44
2022-11-06T23:35:17.211Z,96392.53
2022-11-06T23:37:47.613Z,96389.63
2022-11-06T23:40:17.176Z,96396.09
2022-11-06T23:42:49.233Z,96396.59
2022-11-06T23:45:36.255Z,96394.13
2022-11-06T23:48:08.608Z,96400.13
2022-11-06T23:50:37.746Z,96403.81
2022-11-06T23:53:07.438Z,96403.56
2022-11-06T23:55:36.284Z,96401.34
2022-11-06T23:58:04.720Z,96392.34
